Time;durP1;ratioP1;P1;durP2;ratioP2;P2;SDS_P1;SDS_P2;PMS_P1;PMS_P2;Temp;Humidity;BMP_temperature;BMP_pressure;BME280_temperature;BME280_humidity;BME280_pressure;Samples;Min_cycle;Max_cycle;Signal;HPM_P1;HPM_P2
2022/11/24 03:47:11;;;;;;;0.75;0.03;;;8.00;90.50;;;;;;5337447;23;89150;-74
2022/11/24 03:49:37;;;;;;;1.38;0.40;;;8.10;90.10;;;;;;4800355;29;87340;-74
2022/11/24 03:52:03;;;;;;;1.67;0.10;;;8.10;90.30;;;;;;4810782;29;88223;-73
2022/11/24 03:54:29;;;;;;;1.17;0.03;;;8.20;89.80;;;;;;4803245;29;87046;-74
2022/11/24 03:56:55;;;;;;;2.45;0.05;;;8.20;89.90;;;;;;4815134;29;87353;-74
2022/11/24 03:59:20;;;;;;;0.47;0.00;;;8.20;89.90;;;;;;4807685;29;86930;-73
2022/11/24 04:01:46;;;;;;;1.70;0.10;;;8.20;90.00;;;;;;4807669;29;86329;-72
2022/11/24 04:04:12;;;;;;;3.70;0.00;;;8.30;89.30;;;;;;4806273;29;87262;-72
2022/11/24 04:06:39;;;;;;;0.95;0.00;;;8.30;89.70;;;;;;4811878;29;86221;-73
2022/11/24 04:09:05;;;;;;;0.70;0.00;;;8.30;89.10;;;;;;4807249;29;86269;-72
2022/11/24 04:14:15;;;;;;;1.20;0.00;;;8.30;89.00;;;;;;4805979;29;87270;-73
2022/11/24 04:16:42;;;;;;;0.70;0.08;;;8.20;88.90;;;;;;4806971;29;86659;-74
2022/11/24 04:19:07;;;;;;;1.98;0.00;;;8.20;89.20;;;;;;4807467;29;87627;-73
2022/11/24 04:21:33;;;;;;;0.40;0.00;;;8.20;89.00;;;;;;4819327;29;86751;-73
2022/11/24 04:23:59;;;;;;;1.48;0.00;;;8.10;89.50;;;;;;4810052;29;87083;-73
2022/11/24 04:26:24;;;;;;;1.48;0.00;;;8.10;88.70;;;;;;4800572;29;86714;-72
2022/11/24 04:28:50;;;;;;;2.55;0.00;;;8.20;89.60;;;;;;4806063;29;87513;-73
2022/11/24 04:31:16;;;;;;;1.30;0.03;;;8.20;89.20;;;;;;4809889;29;85624;-72
2022/11/24 04:33:42;;;;;;;2.28;0.10;;;8.20;88.70;;;;;;4819245;29;86704;-73
2022/11/24 04:36:08;;;;;;;1.33;0.10;;;8.20;88.60;;;;;;4807201;29;88430;-72
2022/11/24 04:38:33;;;;;;;1.13;0.10;;;8.20;88.40;;;;;;4817123;29;87367;-72
2022/11/24 04:41:03;;;;;;;1.33;0.10;;;8.30;88.50;;;;;;4809504;29;86808;-72
2022/11/24 04:43:29;;;;;;;2.25;0.10;;;8.30;88.70;;;;;;4804768;29;86541;-72
2022/11/24 04:45:58;;;;;;;2.08;0.00;;;8.20;88.80;;;;;;4800080;29;87355;-74
2022/11/24 04:48:23;;;;;;;2.30;0.17;;;8.20;88.70;;;;;;4808655;29;86909;-72
2022/11/24 04:50:49;;;;;;;1.77;0.05;;;8.20;88.60;;;;;;4818867;29;86297;-73
2022/11/24 04:53:15;;;;;;;1.58;0.00;;;8.20;89.20;;;;;;4814633;29;86667;-73
2022/11/24 04:55:41;;;;;;;3.40;0.08;;;8.20;88.60;;;;;;4803767;29;87745;-73
2022/11/24 04:58:09;;;;;;;2.20;0.03;;;8.20;88.50;;;;;;4803118;29;86248;-71
2022/11/24 05:00:35;;;;;;;2.75;0.00;;;8.20;88.30;;;;;;4798786;29;86810;-72
2022/11/24 05:03:01;;;;;;;3.75;0.05;;;8.30;88.20;;;;;;4798873;29;88510;-72
2022/11/24 05:05:26;;;;;;;1.95;0.00;;;8.30;88.20;;;;;;4806038;29;87273;-72
2022/11/24 05:07:52;;;;;;;2.45;0.00;;;8.30;87.50;;;;;;4806583;29;86776;-73
2022/11/24 05:10:36;;;;;;;2.15;0.20;;;8.40;87.30;;;;;;4806456;29;87065;-71
2022/11/24 05:13:08;;;;;;;2.97;0.17;;;8.40;87.10;;;;;;4804314;29;87325;-72
2022/11/24 05:15:35;;;;;;;1.05;0.10;;;8.50;87.10;;;;;;4805585;29;86591;-72
2022/11/24 05:18:04;;;;;;;0.63;0.00;;;8.50;86.40;;;;;;4806748;29;87074;-72
2022/11/24 05:20:29;;;;;;;1.80;0.00;;;8.50;86.20;;;;;;4804633;29;85554;-72
2022/11/24 05:22:55;;;;;;;1.00;0.00;;;8.50;87.80;;;;;;4816039;29;87228;-72
2022/11/24 05:25:20;;;;;;;2.70;0.10;;;8.60;85.90;;;;;;4803127;29;87292;-72
2022/11/24 05:27:46;;;;;;;1.40;0.15;;;8.60;85.60;;;;;;4806343;29;87792;-72
2022/11/24 05:30:12;;;;;;;1.27;0.03;;;8.60;85.80;;;;;;4805605;29;86312;-72
2022/11/24 05:32:38;;;;;;;1.42;0.00;;;8.60;86.10;;;;;;4809123;29;87359;-72
2022/11/24 05:35:04;;;;;;;3.08;0.10;;;8.60;86.10;;;;;;4805769;29;87137;-72
2022/11/24 05:37:30;;;;;;;3.28;0.10;;;8.60;86.30;;;;;;4807964;29;86305;-72
2022/11/24 05:39:56;;;;;;;0.88;0.08;;;8.50;86.50;;;;;;4805319;29;87021;-72
2022/11/24 05:42:40;;;;;;;2.28;0.00;;;8.50;85.90;;;;;;4806017;29;87431;-73
2022/11/24 05:45:12;;;;;;;2.88;0.00;;;8.50;86.10;;;;;;4800504;29;86498;-72
2022/11/24 05:47:39;;;;;;;0.73;0.00;;;8.50;86.10;;;;;;4796676;29;86837;-74
2022/11/24 05:50:05;;;;;;;1.58;0.05;;;8.50;86.40;;;;;;4808799;29;86434;-73
2022/11/24 05:52:30;;;;;;;1.50;0.10;;;8.50;86.80;;;;;;4804563;29;88213;-73
2022/11/24 05:54:56;;;;;;;1.98;0.10;;;8.50;86.70;;;;;;4794902;29;87852;-72
2022/11/24 05:57:22;;;;;;;2.75;0.20;;;8.40;86.50;;;;;;4806054;29;87149;-74
2022/11/24 05:59:47;;;;;;;2.97;0.00;;;8.40;86.90;;;;;;4802366;29;86700;-73
2022/11/24 06:02:13;;;;;;;2.45;0.00;;;8.40;86.40;;;;;;4802082;29;86665;-72
2022/11/24 06:04:38;;;;;;;2.28;0.10;;;8.30;86.40;;;;;;4792679;29;86849;-72
2022/11/24 06:07:08;;;;;;;2.10;0.10;;;8.30;87.30;;;;;;4802093;29;86397;-72
2022/11/24 06:09:37;;;;;;;1.42;0.10;;;8.20;87.70;;;;;;4798842;29;86196;-73
2022/11/24 06:12:05;;;;;;;1.20;0.10;;;8.30;87.40;;;;;;4803516;29;86797;-72
2022/11/24 06:14:30;;;;;;;1.40;0.20;;;8.20;87.50;;;;;;4806127;29;88810;-73
2022/11/24 06:16:56;;;;;;;4.10;0.10;;;8.10;88.10;;;;;;4803866;29;88426;-73
2022/11/24 06:19:22;;;;;;;1.30;0.10;;;8.00;87.20;;;;;;4808636;29;86304;-72
2022/11/24 06:21:47;;;;;;;2.75;0.13;;;7.90;88.10;;;;;;4809651;29;86745;-73
2022/11/24 06:24:13;;;;;;;0.55;0.00;;;7.90;89.00;;;;;;4805793;29;87091;-73
2022/11/24 06:26:40;;;;;;;1.58;0.10;;;7.90;89.30;;;;;;4797913;29;88143;-72
2022/11/24 06:29:05;;;;;;;2.10;0.10;;;7.90;88.20;;;;;;4813048;29;86394;-72
2022/11/24 06:31:31;;;;;;;1.02;0.10;;;7.90;88.00;;;;;;4807345;29;87341;-72
2022/11/24 06:33:57;;;;;;;0.50;0.00;;;7.80;88.20;;;;;;4807919;29;86333;-72
2022/11/24 06:36:24;;;;;;;2.30;0.10;;;7.80;87.90;;;;;;4806396;29;86927;-72
2022/11/24 06:38:50;;;;;;;0.65;0.00;;;7.80;88.40;;;;;;4812513;29;86822;-73
2022/11/24 06:41:17;;;;;;;2.08;0.20;;;7.80;87.50;;;;;;4798597;29;87515;-72
2022/11/24 06:43:42;;;;;;;1.20;0.10;;;7.80;87.80;;;;;;4803180;29;87971;-72
2022/11/24 06:46:09;;;;;;;1.77;0.10;;;7.80;87.80;;;;;;4800373;29;86766;-72
2022/11/24 06:48:34;;;;;;;1.45;0.10;;;7.80;88.80;;;;;;4804988;29;86455;-72
2022/11/24 06:51:03;;;;;;;1.15;0.10;;;7.80;88.60;;;;;;4806038;29;86658;-72
2022/11/24 06:53:30;;;;;;;1.40;0.10;;;8.00;88.10;;;;;;4804891;29;86881;-72
2022/11/24 06:56:00;;;;;;;1.15;0.00;;;8.10;86.90;;;;;;4805936;29;87042;-72
2022/11/24 06:58:26;;;;;;;3.33;0.10;;;8.20;86.20;;;;;;4806754;29;86251;-72
2022/11/24 07:00:51;;;;;;;2.30;0.10;;;8.30;85.70;;;;;;4805289;29;89072;-72
2022/11/24 07:03:18;;;;;;;2.17;0.10;;;8.40;85.90;;;;;;4804712;29;87109;-73
2022/11/24 07:05:44;;;;;;;2.45;0.20;;;8.50;85.00;;;;;;4806816;29;87682;-73
2022/11/24 07:08:11;;;;;;;1.23;0.13;;;8.60;84.50;;;;;;4802094;29;87031;-73
2022/11/24 07:10:37;;;;;;;1.65;0.10;;;8.70;83.70;;;;;;4804404;29;86814;-73
2022/11/24 07:13:05;;;;;;;1.98;0.10;;;8.80;84.90;;;;;;4805698;29;86972;-73
2022/11/24 07:15:31;;;;;;;3.17;0.00;;;8.90;83.40;;;;;;4806092;29;86505;-72
2022/11/24 07:17:56;;;;;;;1.63;0.13;;;9.00;83.40;;;;;;4804810;29;86966;-73
2022/11/24 07:20:22;;;;;;;1.02;0.00;;;9.00;82.50;;;;;;4805198;29;86877;-73
2022/11/24 07:22:47;;;;;;;3.33;0.10;;;9.00;82.40;;;;;;4805904;29;86290;-72
2022/11/24 07:25:13;;;;;;;2.55;0.10;;;9.10;82.20;;;;;;4802143;29;87134;-73
2022/11/24 07:27:40;;;;;;;1.05;0.20;;;9.20;81.30;;;;;;4810918;29;86922;-74
2022/11/24 07:30:07;;;;;;;2.70;0.20;;;9.30;80.80;;;;;;4802995;29;88198;-73
2022/11/24 07:32:33;;;;;;;2.28;0.00;;;9.30;80.90;;;;;;4807567;29;87844;-72
2022/11/24 07:34:58;;;;;;;1.50;0.20;;;9.30;81.60;;;;;;4804328;29;88176;-72
2022/11/24 07:37:25;;;;;;;2.75;0.10;;;9.30;81.50;;;;;;4798928;29;86935;-73
2022/11/24 07:39:51;;;;;;;1.05;0.00;;;9.30;81.50;;;;;;4804307;29;87285;-72
2022/11/24 07:42:16;;;;;;;1.38;0.10;;;9.30;81.20;;;;;;4804755;29;86974;-73
2022/11/24 07:44:42;;;;;;;1.63;0.10;;;9.30;81.40;;;;;;4810709;29;86821;-73
2022/11/24 07:47:08;;;;;;;1.90;0.20;;;9.40;80.80;;;;;;4805310;29;85805;-73
2022/11/24 07:49:33;;;;;;;1.73;0.13;;;9.40;80.60;;;;;;4804426;29;87205;-73
2022/11/24 07:51:59;;;;;;;16.13;0.55;;;9.40;80.50;;;;;;4804730;29;86773;-73
2022/11/24 07:54:25;;;;;;;3.50;0.50;;;9.40;81.60;;;;;;4804704;29;87937;-73
2022/11/24 07:56:51;;;;;;;2.83;0.60;;;9.30;82.70;;;;;;4805193;29;86682;-73
2022/11/24 07:59:16;;;;;;;1.75;0.22;;;9.20;83.60;;;;;;4804150;29;87107;-72
2022/11/24 08:01:42;;;;;;;5.72;2.20;;;9.10;83.80;;;;;;4805007;29;87043;-72
2022/11/24 08:04:08;;;;;;;3.47;0.20;;;8.80;85.20;;;;;;4804962;29;86757;-73
2022/11/24 08:06:33;;;;;;;3.95;0.90;;;8.70;84.40;;;;;;4797043;29;86288;-73
2022/11/24 08:08:59;;;;;;;2.88;0.43;;;8.70;85.90;;;;;;4804423;29;87375;-73
2022/11/24 08:11:25;;;;;;;4.93;0.93;;;8.60;86.20;;;;;;4805560;29;87539;-72
2022/11/24 08:13:51;;;;;;;2.65;0.98;;;8.70;86.30;;;;;;4799423;29;86814;-72
2022/11/24 08:16:19;;;;;;;7.60;2.33;;;8.80;86.20;;;;;;4793806;29;87089;-73
2022/11/24 08:18:50;;;;;;;2.75;0.20;;;8.90;85.90;;;;;;4805132;29;88210;-72
2022/11/24 08:21:15;;;;;;;4.47;0.20;;;9.00;83.60;;;;;;4804542;29;86952;-72
2022/11/24 08:23:41;;;;;;;2.13;0.38;;;9.10;83.50;;;;;;4802664;29;86319;-72
2022/11/24 08:26:15;;;;;;;2.33;0.05;;;9.20;82.80;;;;;;4805192;29;86591;-73
2022/11/24 08:28:41;;;;;;;2.92;0.10;;;9.30;81.60;;;;;;4799165;29;87225;-72
2022/11/24 08:31:10;;;;;;;2.25;0.10;;;9.30;81.60;;;;;;4800161;29;87773;-72
2022/11/24 08:33:36;;;;;;;1.40;0.03;;;9.40;80.70;;;;;;4802421;29;86324;-72
2022/11/24 08:36:03;;;;;;;1.58;0.08;;;9.40;80.70;;;;;;4799828;29;85808;-72
2022/11/24 08:38:29;;;;;;;2.55;0.10;;;9.40;80.30;;;;;;4804989;29;86494;-73
2022/11/24 08:41:00;;;;;;;1.15;0.10;;;9.40;80.40;;;;;;4803575;29;86995;-72
2022/11/24 08:43:26;;;;;;;1.13;0.00;;;9.40;80.10;;;;;;4804943;29;87550;-73
2022/11/24 08:45:51;;;;;;;1.83;0.10;;;9.40;79.30;;;;;;4802276;29;86370;-73
2022/11/24 08:48:17;;;;;;;1.00;0.10;;;9.40;79.50;;;;;;4804897;29;86648;-73
2022/11/24 08:50:43;;;;;;;1.20;0.10;;;9.40;79.90;;;;;;4804911;29;87528;-73
2022/11/24 08:53:08;;;;;;;2.72;0.10;;;9.40;79.50;;;;;;4802662;29;86366;-73
2022/11/24 08:55:34;;;;;;;0.63;0.00;;;9.40;79.40;;;;;;4804921;29;86824;-73
2022/11/24 08:57:59;;;;;;;2.72;0.05;;;9.40;79.80;;;;;;4802397;29;86559;-72
2022/11/24 09:00:25;;;;;;;1.35;0.00;;;9.40;79.60;;;;;;4804461;29;86297;-72
2022/11/24 09:02:57;;;;;;;1.27;0.00;;;9.40;80.20;;;;;;4803139;29;86552;-73
2022/11/24 09:05:23;;;;;;;1.17;0.00;;;9.50;79.70;;;;;;4806529;29;87198;-73
2022/11/24 09:07:49;;;;;;;0.60;0.00;;;9.60;78.80;;;;;;4804636;29;87555;-72
2022/11/24 09:10:15;;;;;;;0.93;0.00;;;9.60;78.90;;;;;;4802446;29;89129;-73
2022/11/24 09:12:43;;;;;;;1.00;0.08;;;9.70;78.10;;;;;;4796348;29;86669;-73
2022/11/24 09:15:10;;;;;;;3.40;0.10;;;9.70;77.90;;;;;;4804723;29;86236;-73
2022/11/24 09:17:35;;;;;;;2.00;0.10;;;9.80;78.40;;;;;;4804299;29;86984;-73
2022/11/24 09:20:02;;;;;;;1.55;0.10;;;9.80;78.80;;;;;;4803693;29;86896;-72
2022/11/24 09:22:30;;;;;;;1.05;0.00;;;9.90;78.00;;;;;;4805003;29;86623;-73
2022/11/24 09:24:55;;;;;;;4.70;0.20;;;9.80;79.50;;;;;;4804513;29;86253;-71
2022/11/24 09:27:21;;;;;;;5.13;0.22;;;9.80;81.10;;;;;;4804479;29;86506;-71
2022/11/24 09:29:47;;;;;;;4.60;0.10;;;9.70;82.40;;;;;;4803981;29;87017;-73
2022/11/24 09:32:12;;;;;;;3.65;0.20;;;9.60;83.70;;;;;;4799016;29;87440;-71
2022/11/24 09:34:38;;;;;;;4.32;0.20;;;9.60;84.60;;;;;;4796575;29;86236;-73
2022/11/24 09:37:03;;;;;;;3.92;0.40;;;9.60;85.70;;;;;;4801852;29;87157;-73
2022/11/24 09:39:29;;;;;;;3.17;0.20;;;9.60;86.30;;;;;;4804494;29;86783;-73
2022/11/24 09:42:15;;;;;;;7.13;0.85;;;9.70;86.30;;;;;;4803898;29;87029;-73
2022/11/24 09:45:05;;;;;;;3.20;0.20;;;9.80;86.80;;;;;;4804588;29;86204;-72
2022/11/24 09:47:53;;;;;;;3.20;0.20;;;9.90;86.10;;;;;;4802065;29;86715;-72
2022/11/24 09:50:34;;;;;;;7.07;0.98;;;9.90;85.80;;;;;;4804601;29;86987;-73
2022/11/24 09:53:22;;;;;;;10.57;2.15;;;10.00;85.70;;;;;;4799187;29;86316;-73
2022/11/24 09:55:50;;;;;;;9.45;0.50;;;10.00;86.50;;;;;;4800829;29;87103;-72
2022/11/24 09:58:30;;;;;;;5.03;0.40;;;10.00;86.30;;;;;;4803904;29;87461;-72
2022/11/24 10:00:56;;;;;;;2.35;0.20;;;10.00;87.20;;;;;;4804303;29;87942;-73
2022/11/24 10:03:28;;;;;;;2.45;0.15;;;10.00;86.70;;;;;;4803797;29;86939;-72
2022/11/24 10:05:54;;;;;;;3.53;0.25;;;9.90;86.80;;;;;;4796448;29;86405;-72
2022/11/24 10:08:46;;;;;;;4.15;0.30;;;9.80;85.40;;;;;;4799969;29;87545;-72
2022/11/24 10:11:15;;;;;;;5.82;0.28;;;9.60;86.30;;;;;;4797548;29;87064;-72
2022/11/24 10:14:01;;;;;;;2.85;0.20;;;9.40;87.10;;;;;;4798462;29;89146;-72
2022/11/24 10:16:45;;;;;;;2.65;0.20;;;9.30;87.50;;;;;;4798846;29;85986;-73
2022/11/24 10:19:42;;;;;;;3.13;0.63;;;9.20;87.60;;;;;;4803358;29;86736;-72
2022/11/24 10:22:19;;;;;;;3.33;0.32;;;9.10;88.80;;;;;;4798516;29;87035;-72
2022/11/24 10:24:51;;;;;;;2.85;0.30;;;9.20;88.70;;;;;;4798471;29;87655;-73
2022/11/24 10:27:20;;;;;;;3.65;0.30;;;9.20;88.70;;;;;;4803639;29;86475;-73
2022/11/24 10:29:50;;;;;;;5.45;0.85;;;9.30;89.30;;;;;;4803932;29;87551;-73
2022/11/24 10:32:23;;;;;;;3.88;0.73;;;9.40;89.10;;;;;;4802866;29;86992;-73
2022/11/24 10:34:52;;;;;;;3.50;0.40;;;9.50;90.00;;;;;;4798158;29;87499;-72
2022/11/24 10:38:06;;;;;;;4.38;0.50;;;9.50;89.20;;;;;;4798626;29;87630;-73
2022/11/24 10:40:35;;;;;;;2.75;0.50;;;9.50;89.00;;;;;;4789264;29;86619;-72
2022/11/24 10:43:00;;;;;;;2.67;0.30;;;9.70;90.30;;;;;;4803512;29;87018;-73
2022/11/24 10:45:28;;;;;;;4.50;0.40;;;10.10;88.30;;;;;;4798579;29;86767;-73
2022/11/24 10:47:54;;;;;;;3.00;0.60;;;10.40;86.30;;;;;;4798510;29;86315;-72
2022/11/24 10:50:45;;;;;;;4.63;0.30;;;10.40;86.20;;;;;;4802824;29;87660;-73
2022/11/24 10:53:22;;;;;;;4.63;0.30;;;10.30;87.20;;;;;;4797398;29;87008;-73
2022/11/24 10:55:54;;;;;;;;;;;10.50;87.20;;;;;;4801170;29;87115;-73
2022/11/24 10:58:31;;;;;;;2.08;0.20;;;10.60;85.70;;;;;;4803350;29;86282;-72
2022/11/24 11:01:17;;;;;;;5.15;0.22;;;10.80;85.20;;;;;;4803226;29;86979;-73
2022/11/24 11:03:47;;;;;;;2.03;0.10;;;11.10;84.00;;;;;;4801701;29;86981;-72
2022/11/24 11:06:28;;;;;;;1.88;0.20;;;11.00;81.40;;;;;;4806603;29;86861;-73
2022/11/24 11:09:05;;;;;;;5.07;0.20;;;10.70;82.40;;;;;;4804839;29;85950;-73
2022/11/24 11:11:32;;;;;;;10.43;0.28;;;10.50;84.10;;;;;;4797435;29;88194;-72
2022/11/24 11:13:59;;;;;;;3.13;0.10;;;10.50;85.60;;;;;;4795964;29;86985;-73
2022/11/24 11:16:33;;;;;;;1.55;0.10;;;10.70;84.10;;;;;;4805532;29;88136;-73
2022/11/24 11:19:02;;;;;;;1.33;0.10;;;10.70;83.40;;;;;;4805823;29;86923;-72
2022/11/24 11:21:30;;;;;;;1.65;0.13;;;10.70;82.70;;;;;;4807563;29;87348;-73
2022/11/24 11:23:57;;;;;;;3.75;0.22;;;10.90;83.20;;;;;;4790735;29;86996;-73
2022/11/24 11:26:30;;;;;;;1.05;0.10;;;11.10;82.10;;;;;;4796006;29;87607;-73
2022/11/24 11:29:09;;;;;;;1.05;0.10;;;11.30;81.60;;;;;;4799185;29;86751;-73
2022/11/24 11:31:35;;;;;;;2.38;0.10;;;11.50;79.10;;;;;;4796622;29;86648;-73
2022/11/24 11:34:18;;;;;;;1.98;0.20;;;11.80;79.10;;;;;;4800620;29;87487;-73
2022/11/24 11:36:50;;;;;;;0.70;0.00;;;11.90;76.50;;;;;;4795971;29;87131;-73
2022/11/24 11:39:45;;;;;;;1.92;0.15;;;11.80;76.10;;;;;;4797025;29;87070;-73
2022/11/24 11:42:14;;;;;;;1.90;0.10;;;11.80;77.80;;;;;;4795297;29;88592;-73
2022/11/24 11:44:49;;;;;;;1.85;0.10;;;11.70;77.30;;;;;;4794993;29;89356;-73
2022/11/24 11:47:26;;;;;;;2.53;0.10;;;11.60;77.70;;;;;;4797832;29;88686;-73
2022/11/24 11:49:52;;;;;;;2.47;0.10;;;11.60;78.20;;;;;;4801005;29;87096;-73
2022/11/24 11:52:43;;;;;;;1.65;0.10;;;11.60;78.20;;;;;;4794729;29;87229;-72
2022/11/24 11:55:23;;;;;;;2.10;0.10;;;11.40;78.60;;;;;;4802468;29;86979;-73
2022/11/24 11:58:00;;;;;;;2.05;0.15;;;11.20;79.90;;;;;;4797568;29;86623;-73
2022/11/24 12:00:28;;;;;;;1.55;0.10;;;11.20;79.80;;;;;;4806174;29;86190;-74
2022/11/24 12:03:15;;;;;;;2.22;0.10;;;11.20;78.80;;;;;;4809384;29;87486;-73
2022/11/24 12:06:09;;;;;;;1.60;0.10;;;11.00;79.10;;;;;;4805273;29;88490;-73
2022/11/24 12:08:43;;;;;;;2.40;0.10;;;11.20;77.30;;;;;;4792098;29;87487;-71
2022/11/24 12:11:20;;;;;;;1.17;0.10;;;11.30;79.00;;;;;;4803095;29;86907;-72
2022/11/24 12:14:02;;;;;;;2.85;0.10;;;11.50;77.40;;;;;;4797318;29;87251;-71
2022/11/24 12:16:40;;;;;;;2.67;0.10;;;11.60;77.30;;;;;;4800944;29;86490;-71
2022/11/24 12:19:20;;;;;;;3.05;0.30;;;11.70;76.40;;;;;;4803055;29;87072;-73
2022/11/24 12:22:09;;;;;;;1.00;0.20;;;11.60;76.00;;;;;;4797185;29;87275;-71
2022/11/24 12:24:44;;;;;;;2.50;0.10;;;11.50;76.50;;;;;;4795567;29;87088;-72
2022/11/24 12:27:18;;;;;;;1.58;0.10;;;11.40;77.30;;;;;;4804914;29;86390;-71
2022/11/24 12:29:57;;;;;;;2.38;0.30;;;11.30;77.90;;;;;;4802273;29;87024;-72
2022/11/24 12:32:50;;;;;;;1.60;0.20;;;11.20;78.90;;;;;;4800963;29;86966;-73
2022/11/24 12:35:37;;;;;;;1.13;0.17;;;11.00;80.30;;;;;;4798955;29;88214;-73
2022/11/24 12:38:32;;;;;;;2.25;0.13;;;11.00;80.50;;;;;;4801180;29;87179;-72
2022/11/24 12:41:04;;;;;;;2.03;0.20;;;10.90;80.80;;;;;;4802421;29;86699;-72
2022/11/24 12:43:34;;;;;;;2.88;0.17;;;10.80;81.00;;;;;;4796353;29;86369;-73
2022/11/24 12:46:27;;;;;;;3.17;0.10;;;10.60;83.20;;;;;;4800012;29;87226;-73
2022/11/24 12:49:08;;;;;;;2.22;0.10;;;10.70;81.70;;;;;;4794687;29;86866;-73
2022/11/24 12:51:47;;;;;;;3.33;0.10;;;10.40;82.70;;;;;;4802504;29;86743;-73
2022/11/24 12:54:17;;;;;;;1.90;0.10;;;10.40;83.30;;;;;;4794964;29;86368;-72
2022/11/24 12:57:11;;;;;;;2.05;0.10;;;10.50;83.70;;;;;;4803738;29;87122;-72
2022/11/24 12:59:42;;;;;;;0.90;0.10;;;10.70;83.60;;;;;;4796824;29;87078;-71
2022/11/24 13:02:46;;;;;;;0.73;0.00;;;11.00;82.50;;;;;;4800070;29;88023;-73
2022/11/24 13:05:17;;;;;;;1.70;0.10;;;11.10;81.20;;;;;;4742787;29;87283;-73
2022/11/24 13:07:47;;;;;;;1.13;0.20;;;11.20;80.70;;;;;;4732603;29;87266;-73
2022/11/24 13:10:24;;;;;;;1.60;0.10;;;11.20;80.40;;;;;;4775206;29;86342;-73
2022/11/24 13:12:58;;;;;;;1.10;0.10;;;11.20;80.20;;;;;;4804222;29;86686;-73
2022/11/24 13:15:25;;;;;;;1.35;0.10;;;11.10;79.70;;;;;;4799519;29;86937;-72
2022/11/24 13:17:52;;;;;;;1.98;0.03;;;11.10;80.70;;;;;;4804712;29;86716;-72
2022/11/24 13:20:18;;;;;;;1.08;0.00;;;11.00;80.10;;;;;;4805207;29;86899;-73
2022/11/24 13:22:46;;;;;;;0.50;0.00;;;11.00;80.90;;;;;;4796181;29;86956;-73
2022/11/24 13:25:19;;;;;;;1.83;0.00;;;10.90;80.20;;;;;;4808409;29;86777;-73
2022/11/24 13:27:50;;;;;;;1.40;0.10;;;11.00;80.90;;;;;;4792159;29;88096;-73
2022/11/24 13:30:34;;;;;;;1.90;0.20;;;11.20;80.30;;;;;;4801403;29;87287;-71
2022/11/24 13:33:12;;;;;;;1.83;0.30;;;11.30;80.20;;;;;;4804433;29;86721;-73
2022/11/24 13:36:03;;;;;;;6.25;1.08;;;11.20;79.30;;;;;;4802900;29;86233;-73
2022/11/24 13:38:44;;;;;;;2.33;0.22;;;11.10;80.60;;;;;;4804050;29;86889;-73
2022/11/24 13:41:30;;;;;;;1.83;0.20;;;11.30;80.20;;;;;;4804600;29;87481;-73
2022/11/24 13:44:24;;;;;;;1.10;0.05;;;11.20;80.30;;;;;;4793887;29;86794;-73
2022/11/24 13:46:59;;;;;;;4.63;0.20;;;11.20;79.80;;;;;;4799434;29;86011;-72
2022/11/24 13:49:39;;;;;;;2.63;0.40;;;11.20;80.00;;;;;;4799123;29;86582;-73
2022/11/24 13:52:33;;;;;;;1.75;0.20;;;11.10;80.50;;;;;;4801657;29;87629;-72
2022/11/24 13:55:00;;;;;;;2.70;0.40;;;11.00;80.60;;;;;;4800304;29;87291;-73
2022/11/24 13:57:38;;;;;;;2.63;0.50;;;10.80;80.30;;;;;;4801622;29;87160;-73
2022/11/24 14:00:20;;;;;;;1.30;0.20;;;10.70;80.80;;;;;;4801053;29;87428;-72
2022/11/24 14:02:46;;;;;;;1.17;0.13;;;10.60;81.30;;;;;;4798737;29;86965;-73
2022/11/24 14:05:13;;;;;;;1.40;0.13;;;10.50;81.50;;;;;;4803815;29;86306;-72
2022/11/24 14:07:45;;;;;;;1.15;0.20;;;10.30;81.70;;;;;;4796491;29;86809;-72
2022/11/24 14:10:34;;;;;;;1.33;0.10;;;10.30;82.30;;;;;;4797993;29;87700;-72
2022/11/24 14:13:21;;;;;;;1.35;0.10;;;10.20;82.60;;;;;;4800930;29;87299;-73
2022/11/24 14:16:08;;;;;;;1.50;0.20;;;10.10;82.90;;;;;;4802233;29;86567;-72
2022/11/24 14:18:36;;;;;;;6.55;0.10;;;10.00;83.30;;;;;;4790576;29;86568;-72
2022/11/24 14:21:27;;;;;;;2.47;0.10;;;9.90;83.50;;;;;;4801871;29;87941;-72
2022/11/24 14:24:03;;;;;;;2.97;0.10;;;9.90;83.60;;;;;;4792342;29;87381;-72
2022/11/24 14:26:35;;;;;;;1.48;0.10;;;9.80;83.90;;;;;;4802319;29;86743;-72
2022/11/24 14:29:03;;;;;;;1.75;0.17;;;9.70;84.20;;;;;;4796597;29;86409;-73
2022/11/24 14:31:29;;;;;;;0.85;0.10;;;9.70;84.30;;;;;;4803635;29;87735;-72
2022/11/24 14:34:10;;;;;;;0.68;0.10;;;9.60;84.40;;;;;;4797624;29;87114;-72
2022/11/24 14:36:37;;;;;;;9.27;1.80;;;9.50;85.20;;;;;;4800708;29;86849;-72
2022/11/24 14:39:03;;;;;;;5.13;1.27;;;9.50;84.80;;;;;;4807779;29;87168;-73
2022/11/24 14:41:29;;;;;;;1.60;0.40;;;9.40;85.10;;;;;;4795230;29;87496;-72
2022/11/24 14:44:23;;;;;;;2.28;0.20;;;9.40;85.30;;;;;;4802574;29;86962;-72
2022/11/24 14:46:49;;;;;;;2.35;0.13;;;9.40;85.20;;;;;;4797215;29;88119;-72
2022/11/24 14:49:21;;;;;;;1.63;0.13;;;9.30;84.90;;;;;;4800248;29;86948;-72
2022/11/24 14:51:59;;;;;;;1.35;0.10;;;9.30;85.30;;;;;;4806516;29;86841;-72
2022/11/24 14:54:25;;;;;;;1.02;0.10;;;9.20;85.50;;;;;;4807509;29;87324;-72
2022/11/24 14:57:05;;;;;;;1.10;0.10;;;9.20;85.40;;;;;;4805260;29;87043;-72
2022/11/24 14:59:37;;;;;;;1.23;0.10;;;9.20;85.40;;;;;;4806341;29;87475;-72
2022/11/24 15:02:54;;;;;;;2.65;0.10;;;9.10;84.60;;;;;;4806641;29;87375;-71
2022/11/24 15:05:23;;;;;;;0.98;0.10;;;9.10;85.00;;;;;;4739601;29;86366;-71
2022/11/24 15:07:59;;;;;;;1.38;0.20;;;9.10;84.80;;;;;;4804786;29;86310;-72
2022/11/24 15:10:35;;;;;;;3.60;0.20;;;9.10;84.50;;;;;;4806723;29;86508;-72
2022/11/24 15:13:03;;;;;;;2.92;0.30;;;9.00;84.70;;;;;;4798952;29;88262;-72
2022/11/24 15:15:38;;;;;;;4.65;1.38;;;9.00;85.60;;;;;;4806609;29;87039;-72
2022/11/24 15:18:05;;;;;;;1.52;0.10;;;8.90;86.10;;;;;;4792728;29;86287;-72
2022/11/24 15:20:40;;;;;;;1.77;0.10;;;8.90;86.00;;;;;;4801701;29;86538;-72
2022/11/24 15:23:23;;;;;;;2.22;0.45;;;9.00;86.70;;;;;;4806203;29;86923;-72
2022/11/24 15:25:57;;;;;;;1.33;0.22;;;8.90;86.00;;;;;;4805615;29;86815;-72
2022/11/24 15:28:24;;;;;;;0.63;0.13;;;8.90;86.20;;;;;;4805304;29;86567;-71
2022/11/24 15:30:52;;;;;;;4.65;0.73;;;9.00;85.50;;;;;;4804119;29;85946;-72
2022/11/24 15:33:18;;;;;;;2.75;0.63;;;8.90;85.30;;;;;;4799725;29;86709;-71
2022/11/24 15:35:44;;;;;;;3.92;0.85;;;8.90;85.70;;;;;;4805912;29;86919;-71
2022/11/24 15:38:10;;;;;;;1.30;0.10;;;8.90;85.80;;;;;;4795064;29;87733;-71
2022/11/24 15:40:38;;;;;;;2.97;0.50;;;8.90;84.90;;;;;;4801444;29;88132;-72
2022/11/24 15:43:29;;;;;;;1.38;0.28;;;8.80;85.60;;;;;;4805292;29;87898;-72
2022/11/24 15:45:55;;;;;;;1.80;0.10;;;8.80;85.90;;;;;;4792815;29;88366;-72
2022/11/24 15:48:21;;;;;;;1.75;0.20;;;8.80;85.30;;;;;;4792001;29;87178;-72
2022/11/24 15:50:47;;;;;;;1.90;0.28;;;8.70;87.60;;;;;;4807154;29;87137;-72
2022/11/24 15:53:41;;;;;;;1.55;0.15;;;8.70;86.10;;;;;;4806914;29;87329;-72
2022/11/24 15:56:12;;;;;;;3.80;1.10;;;8.70;85.80;;;;;;4797517;29;87066;-72
2022/11/24 15:58:38;;;;;;;3.03;0.30;;;8.70;85.50;;;;;;4794069;29;86987;-72
2022/11/24 16:01:04;;;;;;;2.97;0.10;;;8.70;86.00;;;;;;4796121;29;87533;-72
2022/11/24 16:03:29;;;;;;;1.75;0.10;;;8.60;86.00;;;;;;4799177;29;87817;-72
2022/11/24 16:05:56;;;;;;;1.42;0.10;;;8.60;87.30;;;;;;4802006;29;87864;-72
2022/11/24 16:08:22;;;;;;;1.40;0.10;;;8.60;87.00;;;;;;4794271;29;86389;-72
2022/11/24 16:10:48;;;;;;;1.48;0.10;;;8.60;87.20;;;;;;4801741;29;87602;-72
2022/11/24 16:13:13;;;;;;;1.30;0.10;;;8.60;86.50;;;;;;4794780;29;87254;-73
2022/11/24 16:15:39;;;;;;;2.42;0.10;;;8.50;87.00;;;;;;4801750;29;87193;-72
2022/11/24 16:18:05;;;;;;;1.27;0.10;;;8.50;86.40;;;;;;4803871;29;86304;-73
2022/11/24 16:20:33;;;;;;;1.92;0.30;;;8.50;86.30;;;;;;4803732;29;85846;-72
2022/11/24 16:22:59;;;;;;;1.25;0.10;;;8.50;86.40;;;;;;4802860;29;86802;-72
2022/11/24 16:25:25;;;;;;;1.70;0.10;;;8.50;86.50;;;;;;4797402;29;86605;-72
2022/11/24 16:27:50;;;;;;;1.90;0.10;;;8.50;86.50;;;;;;4790623;29;87351;-72
2022/11/24 16:30:16;;;;;;;2.20;0.10;;;8.40;87.00;;;;;;4805653;29;86310;-72
2022/11/24 16:32:42;;;;;;;0.57;0.00;;;8.40;86.80;;;;;;4804216;29;86607;-72
2022/11/24 16:35:08;;;;;;;1.08;0.10;;;8.40;86.90;;;;;;4801471;29;86456;-72
2022/11/24 16:37:33;;;;;;;1.40;0.10;;;8.40;87.90;;;;;;4797898;29;87385;-72
2022/11/24 16:40:01;;;;;;;2.92;0.10;;;8.40;87.00;;;;;;4798091;29;87883;-72
2022/11/24 16:42:27;;;;;;;2.38;0.00;;;8.40;89.30;;;;;;4796790;29;87874;-72
2022/11/24 16:44:52;;;;;;;1.52;0.10;;;8.40;89.30;;;;;;4800122;29;86995;-72
2022/11/24 16:47:19;;;;;;;1.80;0.20;;;8.50;90.40;;;;;;4797433;29;86836;-72
2022/11/24 16:49:48;;;;;;;1.45;0.10;;;8.50;86.80;;;;;;4801692;29;86775;-72
2022/11/24 16:52:15;;;;;;;1.13;0.10;;;8.50;86.80;;;;;;4799284;29;87947;-72
2022/11/24 16:54:40;;;;;;;1.75;0.10;;;8.40;86.90;;;;;;4799932;29;88838;-71
2022/11/24 16:57:06;;;;;;;1.58;0.00;;;8.40;87.10;;;;;;4798495;29;86912;-71
2022/11/24 16:59:32;;;;;;;1.10;0.10;;;8.40;87.00;;;;;;4797204;29;87131;-72
2022/11/24 17:01:58;;;;;;;1.35;0.10;;;8.30;87.00;;;;;;4797008;29;86822;-72
2022/11/24 17:04:24;;;;;;;1.02;0.10;;;8.30;87.70;;;;;;4795241;29;87101;-72